createdAt,value
2023-01-02T00:02:44.647Z,0.93
2023-01-02T00:06:46.245Z,0.55
2023-01-02T00:10:47.804Z,0.52
2023-01-02T00:14:49.237Z,0.70
2023-01-02T00:18:50.976Z,0.90
2023-01-02T00:22:52.401Z,0.50
2023-01-02T00:26:53.862Z,0.85
2023-01-02T00:30:55.539Z,1.00
2023-01-02T00:34:56.988Z,1.05
2023-01-02T00:38:58.426Z,1.35
2023-01-02T00:42:59.977Z,0.55
2023-01-02T00:47:01.544Z,0.88
2023-01-02T00:51:03.119Z,0.63
2023-01-02T00:55:05.012Z,0.75
2023-01-02T00:59:06.532Z,0.50
2023-01-02T01:03:08.008Z,0.90
2023-01-02T01:07:09.592Z,0.70
2023-01-02T01:11:15.174Z,0.63
2023-01-02T01:15:16.694Z,0.65
2023-01-02T01:19:18.151Z,0.70
2023-01-02T01:23:19.630Z,0.70
2023-01-02T01:27:21.153Z,0.80
2023-01-02T01:31:23.448Z,0.93
2023-01-02T01:35:24.980Z,0.98
2023-01-02T01:39:26.421Z,0.55
2023-01-02T01:43:50.182Z,1.00
2023-01-02T01:47:55.014Z,0.52
2023-01-02T01:52:06.772Z,0.50
2023-01-02T01:56:10.649Z,0.68
2023-01-02T02:00:12.876Z,0.63
2023-01-02T02:04:16.333Z,0.68
2023-01-02T02:08:31.307Z,1.15
2023-01-02T02:12:33.864Z,0.60
2023-01-02T02:16:52.325Z,0.90
2023-01-02T02:21:30.965Z,0.65
2023-01-02T02:26:00.728Z,0.50
2023-01-02T02:30:14.220Z,0.60
2023-01-02T02:34:29.440Z,1.00
2023-01-02T02:39:03.036Z,0.75
2023-01-02T02:43:15.343Z,0.70
2023-01-02T02:47:31.028Z,0.98
2023-01-02T02:51:41.700Z,0.90
2023-01-02T02:55:46.453Z,0.93
2023-01-02T02:59:47.960Z,1.20
2023-01-02T03:03:49.351Z,0.90
2023-01-02T03:08:01.830Z,0.90
2023-01-02T03:12:19.493Z,1.35
2023-01-02T03:16:33.601Z,0.70
2023-01-02T03:20:41.630Z,0.73
2023-01-02T03:24:44.871Z,0.95
2023-01-02T03:28:51.834Z,0.95
2023-01-02T03:32:58.398Z,0.70
2023-01-02T03:37:13.935Z,0.73
2023-01-02T03:41:23.305Z,1.30
2023-01-02T03:45:31.002Z,0.85
2023-01-02T03:49:37.263Z,1.40
2023-01-02T03:53:40.492Z,0.80
2023-01-02T03:58:00.831Z,1.10
2023-01-02T04:02:15.115Z,0.93
2023-01-02T04:06:24.013Z,1.20
2023-01-02T04:10:28.252Z,1.00
2023-01-02T04:14:36.022Z,1.23
2023-01-02T04:18:47.330Z,1.20
2023-01-02T04:22:54.627Z,1.30
2023-01-02T04:27:07.377Z,0.98
2023-01-02T04:31:26.676Z,1.42
2023-01-02T04:35:29.056Z,1.00
2023-01-02T04:39:31.008Z,0.98
2023-01-02T04:43:33.014Z,1.50
2023-01-02T04:47:34.501Z,0.85
2023-01-02T04:51:35.998Z,1.00
2023-01-02T04:55:38.210Z,0.98
2023-01-02T04:59:39.645Z,1.38
2023-01-02T05:03:42.724Z,1.23
2023-01-02T05:07:44.340Z,1.13
2023-01-02T05:11:45.782Z,0.93
2023-01-02T05:15:54.482Z,1.85
2023-01-02T05:19:55.917Z,1.17
2023-01-02T05:24:00.673Z,0.65
2023-01-02T05:28:03.804Z,1.02
2023-01-02T05:32:05.504Z,1.55
2023-01-02T05:36:08.134Z,0.95
2023-01-02T05:40:09.994Z,0.98
2023-01-02T05:44:11.665Z,0.98
2023-01-02T05:48:13.079Z,1.50
2023-01-02T05:52:14.674Z,1.67
2023-01-02T05:56:21.549Z,1.13
2023-01-02T06:00:23.016Z,1.25
2023-01-02T06:04:24.515Z,1.45
2023-01-02T06:08:26.027Z,1.67
2023-01-02T06:12:27.435Z,1.55
2023-01-02T06:16:28.924Z,1.58
2023-01-02T06:20:30.363Z,1.30
2023-01-02T06:24:31.817Z,1.02
2023-01-02T06:28:33.740Z,1.17
2023-01-02T06:32:35.166Z,1.33
2023-01-02T06:36:36.671Z,1.20
2023-01-02T06:40:39.247Z,0.90
2023-01-02T06:44:40.699Z,1.50
2023-01-02T06:48:42.688Z,1.40
2023-01-02T06:52:44.137Z,1.55
2023-01-02T06:56:45.559Z,1.25
2023-01-02T07:00:47.867Z,1.63
2023-01-02T07:04:49.317Z,1.15
2023-01-02T07:08:52.109Z,1.33
2023-01-02T07:12:53.556Z,1.58
2023-01-02T07:16:55.066Z,0.95
2023-01-02T07:20:56.535Z,1.10
2023-01-02T07:24:57.975Z,0.80
2023-01-02T07:28:59.532Z,1.30
2023-01-02T07:33:00.972Z,1.25
2023-01-02T07:37:02.498Z,1.23
2023-01-02T07:41:04.124Z,1.15
2023-01-02T07:45:06.247Z,1.30
2023-01-02T07:49:07.781Z,1.58
2023-01-02T07:53:09.288Z,1.10
2023-01-02T07:57:10.749Z,1.85
2023-01-02T08:01:13.048Z,0.95
2023-01-02T08:05:14.697Z,1.65
2023-01-02T08:09:16.232Z,1.02
2023-01-02T08:13:17.652Z,1.17
2023-01-02T08:17:19.131Z,0.88
2023-01-02T08:21:20.764Z,1.25
2023-01-02T08:25:22.165Z,1.15
2023-01-02T08:29:23.593Z,1.10
2023-01-02T08:33:25.086Z,1.42
2023-01-02T08:37:26.510Z,1.40
2023-01-02T08:41:35.615Z,1.85
2023-01-02T08:45:37.383Z,1.48
2023-01-02T08:49:38.802Z,1.00
2023-01-02T08:53:40.697Z,1.48
2023-01-02T08:57:42.260Z,2.00
2023-01-02T09:01:43.902Z,1.30
2023-01-02T09:05:45.430Z,1.88
2023-01-02T09:09:47.067Z,1.45
2023-01-02T09:13:49.682Z,1.60
2023-01-02T09:17:51.122Z,1.70
2023-01-02T09:21:52.966Z,1.77
2023-01-02T09:26:01.493Z,0.95
2023-01-02T09:30:03.085Z,1.38
2023-01-02T09:34:04.857Z,1.30
2023-01-02T09:38:06.287Z,1.52
2023-01-02T09:42:14.537Z,1.50
2023-01-02T09:46:28.246Z,1.35
2023-01-02T09:50:30.718Z,1.70
2023-01-02T09:54:34.015Z,0.88
2023-01-02T09:58:45.168Z,1.35
2023-01-02T10:03:08.880Z,1.30
2023-01-02T10:07:35.948Z,1.83
2023-01-02T10:11:48.270Z,1.17
2023-01-02T10:15:53.282Z,1.35
2023-01-02T10:20:08.823Z,1.60
2023-01-02T10:24:19.003Z,1.10
2023-01-02T10:28:47.025Z,0.85
2023-01-02T10:32:59.756Z,1.70
2023-01-02T10:37:06.187Z,1.25
2023-01-02T10:41:09.517Z,0.90
2023-01-02T10:45:16.290Z,1.00
2023-01-02T10:49:19.389Z,1.30
2023-01-02T10:53:28.639Z,1.13
2023-01-02T10:57:46.937Z,1.02
2023-01-02T11:01:51.297Z,1.25
2023-01-02T11:05:59.189Z,0.98
2023-01-02T11:10:20.851Z,1.25
2023-01-02T11:14:31.353Z,1.17
2023-01-02T11:18:34.831Z,0.65
2023-01-02T11:22:37.187Z,1.10
2023-01-02T11:26:40.541Z,0.93
2023-01-02T11:30:47.654Z,1.30
2023-01-02T11:34:58.405Z,1.23
2023-01-02T11:39:00.840Z,1.48
2023-01-02T11:43:26.468Z,1.27
2023-01-02T11:47:34.252Z,1.48
2023-01-02T11:51:38.379Z,1.30
2023-01-02T11:55:46.470Z,1.05
2023-01-02T11:59:51.431Z,0.75
2023-01-02T12:03:53.835Z,0.88
2023-01-02T12:08:05.613Z,1.33
2023-01-02T12:12:13.976Z,1.55
2023-01-02T12:16:28.259Z,1.10
2023-01-02T12:20:55.319Z,0.98
2023-01-02T12:25:25.897Z,0.98
2023-01-02T12:34:16.502Z,1.08
2023-01-02T12:38:44.421Z,1.13
2023-01-02T12:43:27.216Z,0.80
2023-01-02T12:47:55.160Z,0.73
2023-01-02T12:52:24.231Z,0.63
2023-01-02T12:56:49.393Z,0.80
2023-01-02T13:01:26.319Z,1.00
2023-01-02T13:05:37.059Z,0.98
2023-01-02T13:09:41.045Z,0.63
2023-01-02T13:13:42.951Z,1.05
2023-01-02T13:17:50.459Z,0.98
2023-01-02T13:21:59.525Z,0.88
2023-01-02T13:26:08.548Z,1.27
2023-01-02T13:30:31.857Z,1.23
2023-01-02T13:34:33.551Z,0.90
2023-01-02T13:38:36.913Z,1.25
2023-01-02T13:42:58.165Z,1.00
2023-01-02T13:51:22.685Z,1.90
2023-01-02T13:55:31.503Z,0.40
2023-01-02T13:59:41.655Z,0.95
2023-01-02T14:03:43.885Z,0.82
2023-01-02T14:07:47.660Z,0.75
2023-01-02T14:12:00.205Z,1.40
2023-01-02T14:16:19.657Z,1.02
2023-01-02T14:20:21.109Z,1.38
2023-01-02T14:24:30.441Z,0.70
2023-01-02T14:28:38.039Z,0.55
2023-01-02T14:32:45.570Z,0.52
2023-01-02T14:36:49.630Z,0.88
2023-01-02T14:40:52.105Z,1.00
2023-01-02T14:44:58.523Z,0.50
2023-01-02T14:49:26.326Z,0.55
2023-01-02T14:53:36.101Z,0.60
2023-01-02T15:22:04.872Z,0.50
2023-01-02T15:27:22.400Z,0.47
2023-01-02T15:31:23.880Z,0.45
2023-01-02T15:35:29.305Z,0.50
2023-01-02T15:39:53.514Z,0.50
2023-01-02T15:44:17.011Z,0.80
2023-01-02T15:48:21.843Z,0.40
2023-01-02T15:52:30.078Z,0.30
2023-01-02T15:56:39.149Z,0.28
2023-01-02T16:00:41.814Z,0.40
2023-01-02T16:04:44.424Z,0.57
2023-01-02T16:08:55.140Z,0.50
2023-01-02T16:13:02.087Z,0.20
2023-01-02T16:17:22.321Z,0.70
2023-01-02T16:25:35.139Z,0.30
2023-01-02T16:29:41.742Z,0.20
2023-01-02T16:33:45.707Z,0.40
2023-01-02T16:37:56.173Z,0.32
2023-01-02T16:42:24.376Z,0.47
2023-01-02T16:46:27.087Z,0.57
2023-01-02T16:50:29.082Z,0.80
2023-01-02T16:54:33.067Z,1.02
2023-01-02T16:58:36.342Z,0.40
2023-01-02T17:02:42.185Z,0.60
2023-01-02T17:06:44.851Z,0.30
2023-01-02T17:17:02.292Z,0.40
2023-01-02T17:21:34.534Z,0.77
2023-01-02T17:25:43.330Z,0.77
2023-01-02T17:29:46.623Z,0.55
2023-01-02T17:33:49.682Z,0.60
2023-01-02T17:37:55.125Z,0.40
2023-01-02T17:41:57.032Z,0.93
2023-01-02T17:46:22.313Z,0.47
2023-01-02T17:50:25.514Z,0.60
2023-01-02T17:54:27.017Z,0.50
2023-01-02T18:02:45.093Z,0.35
2023-01-02T18:06:46.712Z,0.80
2023-01-02T18:10:48.242Z,0.50
2023-01-02T18:14:49.787Z,0.73
2023-01-02T18:18:53.120Z,0.50
2023-01-02T18:22:54.611Z,0.50
2023-01-02T18:26:59.712Z,0.40
2023-01-02T18:31:02.151Z,0.68
2023-01-02T18:39:48.173Z,0.60
2023-01-02T18:43:53.950Z,0.65
2023-01-02T18:47:57.526Z,1.27
2023-01-02T18:52:10.956Z,0.52
2023-01-02T18:56:24.632Z,0.40
2023-01-02T19:00:29.146Z,0.32
2023-01-02T19:04:35.467Z,0.40
2023-01-02T19:08:37.490Z,0.40
2023-01-02T19:13:07.078Z,0.40
2023-01-02T19:17:19.894Z,0.88
2023-01-02T19:21:29.951Z,0.43
2023-01-02T19:25:31.384Z,0.50
2023-01-02T19:29:35.156Z,0.77
2023-01-02T19:33:40.209Z,0.40
2023-01-02T19:37:45.216Z,0.45
2023-01-02T19:42:05.648Z,0.55
2023-01-02T19:46:07.224Z,0.30
2023-01-02T19:50:11.680Z,0.43
2023-01-02T19:54:13.140Z,0.22
2023-01-02T19:58:16.834Z,0.50
2023-01-02T20:02:20.907Z,0.47
2023-01-02T20:06:22.498Z,0.30
2023-01-02T20:10:23.956Z,0.30
2023-01-02T20:14:26.704Z,0.68
2023-01-02T20:18:28.229Z,0.50
2023-01-02T20:22:29.685Z,0.38
2023-01-02T20:26:31.164Z,0.47
2023-01-02T20:30:32.649Z,0.90
2023-01-02T20:34:34.198Z,0.50
2023-01-02T20:38:36.610Z,0.68
2023-01-02T20:42:38.120Z,0.60
2023-01-02T20:46:40.442Z,0.77
2023-01-02T20:50:41.922Z,0.60
2023-01-02T20:54:43.432Z,1.15
2023-01-02T20:58:44.995Z,0.63
2023-01-02T21:02:46.581Z,0.80
2023-01-02T21:06:50.045Z,0.63
2023-01-02T21:10:51.443Z,0.40
2023-01-02T21:14:53.093Z,0.45
2023-01-02T21:18:54.534Z,0.93
2023-01-02T21:22:55.945Z,0.50
2023-01-02T21:26:57.448Z,1.00
2023-01-02T21:30:59.060Z,0.80
2023-01-02T21:35:00.548Z,0.68
2023-01-02T21:39:02.991Z,0.80
2023-01-02T21:43:04.784Z,0.95
2023-01-02T21:47:06.308Z,0.40
2023-01-02T21:51:08.700Z,0.75
2023-01-02T21:55:11.240Z,1.13
2023-01-02T21:59:12.675Z,0.43
2023-01-02T22:03:14.237Z,0.90
2023-01-02T22:07:32.264Z,0.70
2023-01-02T22:11:53.397Z,1.02
2023-01-02T22:15:55.003Z,0.55
2023-01-02T22:19:56.906Z,0.90
2023-01-02T22:23:58.386Z,0.55
2023-01-02T22:28:00.099Z,0.68
2023-01-02T22:32:03.730Z,0.80
2023-01-02T22:36:05.862Z,0.73
2023-01-02T22:40:08.008Z,0.73
2023-01-02T22:44:17.413Z,0.95
2023-01-02T22:48:25.323Z,1.10
2023-01-02T22:52:27.151Z,0.35
2023-01-02T22:56:29.077Z,0.57
2023-01-02T23:00:30.520Z,0.30
2023-01-02T23:04:32.083Z,0.35
2023-01-02T23:08:33.977Z,0.70
2023-01-02T23:12:35.462Z,0.50
2023-01-02T23:16:56.423Z,0.85
2023-01-02T23:20:57.885Z,0.80
2023-01-02T23:25:00.653Z,0.60
2023-01-02T23:29:07.162Z,0.93
2023-01-02T23:33:09.711Z,1.00
2023-01-02T23:37:11.128Z,0.90
2023-01-02T23:41:12.550Z,0.57
2023-01-02T23:45:14.112Z,0.65
2023-01-02T23:49:16.657Z,0.60
2023-01-02T23:53:18.071Z,0.93
